Time;durP1;ratioP1;P1;durP2;ratioP2;P2;SDS_P1;SDS_P2;PMS_P1;PMS_P2;Temp;Humidity;BMP_temperature;BMP_pressure;BME280_temperature;BME280_humidity;BME280_pressure;Samples;Min_cycle;Max_cycle;Signal;HPM_P1;HPM_P2
2024/01/09 00:02:13;;;;;;;2.97;1.30;;;-1.60;99.90;;;;;;5071253;28;20032;-79
2024/01/09 00:04:39;;;;;;;0.77;0.60;;;-1.60;99.90;;;;;;5054701;28;20493;-80
2024/01/09 00:07:04;;;;;;;1.15;0.73;;;-1.60;99.90;;;;;;5055477;28;20098;-80
2024/01/09 00:09:34;;;;;;;0.82;0.50;;;-1.60;99.90;;;;;;5068501;28;20093;-79
2024/01/09 00:11:59;;;;;;;5.80;1.52;;;-1.60;99.90;;;;;;5053809;28;20490;-79
2024/01/09 00:14:25;;;;;;;1.05;0.90;;;-1.60;99.90;;;;;;5070171;28;20051;-79
2024/01/09 00:16:50;;;;;;;1.48;1.20;;;-1.60;99.90;;;;;;5053112;28;20047;-79
2024/01/09 00:19:16;;;;;;;1.88;1.10;;;-1.60;99.90;;;;;;5054155;28;20078;-79
2024/01/09 00:21:42;;;;;;;4.18;1.10;;;-1.60;99.90;;;;;;5069759;28;20040;-79
2024/01/09 00:24:08;;;;;;;1.92;1.17;;;-1.60;99.90;;;;;;5070127;28;20089;-79
2024/01/09 00:26:41;;;;;;;3.60;1.13;;;-1.60;99.90;;;;;;5054703;28;20070;-79
2024/01/09 00:29:07;;;;;;;4.75;1.30;;;-1.70;99.90;;;;;;5051141;28;20451;-79
2024/01/09 00:31:32;;;;;;;2.50;0.50;;;-1.60;99.90;;;;;;5052704;28;20435;-79
2024/01/09 00:33:58;;;;;;;1.00;0.50;;;-1.70;99.90;;;;;;5072924;28;20043;-79
2024/01/09 00:36:24;;;;;;;1.60;0.77;;;-1.70;99.90;;;;;;5068296;28;20031;-78
2024/01/09 00:38:50;;;;;;;1.10;0.57;;;-1.70;99.90;;;;;;5052477;28;20394;-78
2024/01/09 00:41:16;;;;;;;2.42;0.75;;;-1.70;99.90;;;;;;5053961;28;20044;-79
2024/01/09 00:43:41;;;;;;;1.92;0.95;;;-1.70;99.90;;;;;;5052433;28;20032;-79
2024/01/09 00:46:07;;;;;;;1.33;1.02;;;-1.70;99.90;;;;;;5069036;28;20028;-79
2024/01/09 00:48:33;;;;;;;1.10;0.73;;;-1.70;99.90;;;;;;5053162;28;20557;-79
2024/01/09 00:50:59;;;;;;;2.55;0.63;;;-1.70;99.90;;;;;;5069439;28;20400;-79
2024/01/09 00:53:25;;;;;;;2.22;0.82;;;-1.70;99.90;;;;;;5053581;28;20044;-79
2024/01/09 00:55:50;;;;;;;0.75;0.35;;;-1.80;99.90;;;;;;5070131;28;20028;-79
2024/01/09 00:58:16;;;;;;;3.60;1.55;;;-1.80;99.90;;;;;;5067566;28;20378;-79
2024/01/09 01:00:41;;;;;;;1.20;0.73;;;-1.80;99.90;;;;;;5053323;28;20378;-78
2024/01/09 01:03:07;;;;;;;1.92;0.88;;;-1.80;99.90;;;;;;5053390;28;20032;-78
2024/01/09 01:05:33;;;;;;;1.92;0.88;;;-1.80;99.90;;;;;;5054018;28;20081;-79
2024/01/09 01:07:59;;;;;;;1.08;0.80;;;-1.80;99.90;;;;;;5069783;28;20032;-79
2024/01/09 01:10:25;;;;;;;4.28;0.77;;;-1.80;99.90;;;;;;5052139;28;20393;-79
2024/01/09 01:12:50;;;;;;;1.52;0.80;;;-1.80;99.90;;;;;;5067564;28;20036;-78
2024/01/09 01:15:16;;;;;;;1.88;0.95;;;-1.90;99.90;;;;;;5068695;28;20040;-78
2024/01/09 01:17:42;;;;;;;1.00;0.70;;;-1.90;99.90;;;;;;5052291;28;20578;-78
2024/01/09 01:20:09;;;;;;;2.05;0.85;;;-1.90;99.90;;;;;;5053459;28;20028;-78
2024/01/09 01:22:34;;;;;;;1.48;0.73;;;-1.90;99.90;;;;;;5050539;28;20493;-79
2024/01/09 01:25:00;;;;;;;1.77;0.90;;;-1.90;99.90;;;;;;5069559;28;20047;-79
2024/01/09 01:27:26;;;;;;;3.30;1.25;;;-1.90;99.90;;;;;;5069458;28;20055;-78
2024/01/09 01:29:52;;;;;;;3.70;1.23;;;-1.90;99.90;;;;;;5053450;28;20044;-78
2024/01/09 01:32:18;;;;;;;1.02;0.50;;;-1.90;99.90;;;;;;5080341;28;20054;-77
2024/01/09 01:34:43;;;;;;;0.52;0.43;;;-2.00;99.90;;;;;;5071302;28;20044;-78
2024/01/09 01:37:09;;;;;;;2.45;0.80;;;-1.90;99.90;;;;;;5088591;28;20047;-78
2024/01/09 01:39:36;;;;;;;1.83;0.85;;;-1.90;99.90;;;;;;5090265;28;20036;-77
2024/01/09 01:42:02;;;;;;;0.52;0.52;;;-2.00;99.90;;;;;;5074797;28;20036;-78
2024/01/09 01:44:28;;;;;;;2.25;1.05;;;-2.00;99.90;;;;;;5073926;28;20039;-79
2024/01/09 01:46:54;;;;;;;4.35;1.38;;;-2.00;99.90;;;;;;5074049;28;20385;-78
2024/01/09 01:49:21;;;;;;;2.47;0.88;;;-2.00;99.90;;;;;;5074179;28;20653;-78
2024/01/09 01:51:49;;;;;;;2.55;1.20;;;-2.00;99.90;;;;;;5070591;28;20531;-78
2024/01/09 01:54:15;;;;;;;4.47;1.55;;;-2.00;99.90;;;;;;5072423;28;20047;-79
2024/01/09 01:56:42;;;;;;;2.70;0.93;;;-2.00;99.90;;;;;;5071484;28;20051;-78
2024/01/09 01:59:13;;;;;;;4.13;1.48;;;-2.00;99.90;;;;;;5055374;28;20150;-78
2024/01/09 02:01:39;;;;;;;1.65;1.00;;;-2.00;99.90;;;;;;5072207;28;20047;-78
2024/01/09 02:04:06;;;;;;;3.08;1.00;;;-2.00;99.90;;;;;;5073325;28;20032;-78
2024/01/09 02:06:33;;;;;;;0.70;0.40;;;-2.10;99.90;;;;;;5071926;28;20056;-78
2024/01/09 02:08:59;;;;;;;1.45;0.77;;;-2.00;99.90;;;;;;5056532;28;20071;-78
2024/01/09 02:11:25;;;;;;;2.03;0.50;;;-2.00;99.90;;;;;;5054097;28;20063;-78
2024/01/09 02:13:51;;;;;;;2.92;1.65;;;-2.00;99.90;;;;;;5071839;28;20502;-78
2024/01/09 02:16:17;;;;;;;1.98;1.10;;;-2.00;99.90;;;;;;5055386;28;20043;-78
2024/01/09 02:18:45;;;;;;;1.50;0.73;;;-2.10;99.90;;;;;;5056339;28;20051;-78
2024/01/09 02:21:11;;;;;;;3.20;1.15;;;-2.10;99.90;;;;;;5072530;28;20047;-78
2024/01/09 02:23:37;;;;;;;1.23;0.60;;;-2.00;99.90;;;;;;5057224;28;20489;-78
2024/01/09 02:26:03;;;;;;;3.35;0.88;;;-2.10;99.90;;;;;;5055047;28;20553;-78
2024/01/09 02:28:43;;;;;;;2.55;0.75;;;-2.10;99.90;;;;;;5054363;28;20043;-78
2024/01/09 02:31:09;;;;;;;2.30;0.63;;;-2.10;99.90;;;;;;5070180;28;20058;-77
2024/01/09 02:33:36;;;;;;;1.52;0.52;;;-2.20;99.90;;;;;;5071918;28;20093;-77
2024/01/09 02:36:02;;;;;;;1.10;0.90;;;-2.10;99.90;;;;;;5072156;28;20359;-78
2024/01/09 02:38:28;;;;;;;1.27;0.70;;;-2.20;99.90;;;;;;5055380;28;20063;-77
2024/01/09 02:40:53;;;;;;;1.52;0.75;;;-2.20;99.90;;;;;;5069850;28;20415;-77
2024/01/09 02:43:19;;;;;;;1.85;0.70;;;-2.20;99.90;;;;;;5054801;28;20040;-77
2024/01/09 02:45:45;;;;;;;1.00;0.60;;;-2.10;99.90;;;;;;5071456;28;20039;-77
2024/01/09 02:48:10;;;;;;;1.30;0.63;;;-2.20;99.90;;;;;;5072256;28;20052;-77
2024/01/09 02:50:36;;;;;;;5.10;1.15;;;-2.20;99.90;;;;;;5070712;28;20036;-77
2024/01/09 02:53:02;;;;;;;1.63;1.17;;;-2.20;99.90;;;;;;5071560;28;20481;-77
2024/01/09 02:55:27;;;;;;;0.80;0.65;;;-2.20;99.90;;;;;;5053840;28;20032;-77
2024/01/09 02:57:53;;;;;;;0.75;0.60;;;-2.20;99.90;;;;;;5070975;28;20028;-77
2024/01/09 03:00:19;;;;;;;5.18;1.42;;;-2.20;99.90;;;;;;5070913;28;20032;-77
2024/01/09 03:02:45;;;;;;;3.28;0.88;;;-2.20;99.90;;;;;;5054374;28;20040;-78
2024/01/09 03:05:11;;;;;;;3.55;1.00;;;-2.20;99.90;;;;;;5055021;28;20046;-77
2024/01/09 03:07:36;;;;;;;3.50;0.70;;;-2.30;99.90;;;;;;5070350;28;20036;-77
2024/01/09 03:10:03;;;;;;;1.27;0.77;;;-2.30;99.90;;;;;;5068319;28;20258;-76
2024/01/09 03:12:28;;;;;;;1.63;0.60;;;-2.30;99.90;;;;;;5053682;28;20043;-77
2024/01/09 03:14:55;;;;;;;2.33;1.45;;;-2.30;99.90;;;;;;5070867;28;20032;-77
2024/01/09 03:17:21;;;;;;;0.47;0.40;;;-2.30;99.90;;;;;;5070768;28;20067;-77
2024/01/09 03:19:47;;;;;;;1.27;0.50;;;-2.30;99.90;;;;;;5053690;28;20028;-77
2024/01/09 03:22:13;;;;;;;1.38;0.77;;;-2.30;99.90;;;;;;5071034;28;20439;-77
2024/01/09 03:24:38;;;;;;;0.98;0.63;;;-2.30;99.90;;;;;;5052922;28;20040;-77
2024/01/09 03:27:04;;;;;;;1.65;0.88;;;-2.30;99.90;;;;;;5056379;28;20135;-77
2024/01/09 03:29:30;;;;;;;1.70;0.80;;;-2.30;99.90;;;;;;5075788;28;20496;-77
2024/01/09 03:31:57;;;;;;;3.15;0.85;;;-2.30;99.90;;;;;;5054017;28;20032;-77
2024/01/09 03:34:22;;;;;;;1.45;0.63;;;-2.30;99.90;;;;;;5070689;28;20195;-77
2024/01/09 03:36:48;;;;;;;2.13;1.27;;;-2.30;99.90;;;;;;5054050;28;20126;-76
2024/01/09 03:39:16;;;;;;;3.63;0.98;;;-2.30;99.90;;;;;;5071142;28;20500;-77
2024/01/09 03:41:42;;;;;;;1.15;0.80;;;-2.30;99.90;;;;;;5053933;28;20036;-77
2024/01/09 03:44:12;;;;;;;2.38;0.90;;;-2.40;99.90;;;;;;5052139;28;20501;-76
2024/01/09 03:46:38;;;;;;;2.38;1.10;;;-2.40;99.90;;;;;;5053663;28;20529;-77
2024/01/09 03:49:03;;;;;;;1.50;1.35;;;-2.40;99.90;;;;;;5070872;28;20071;-77
2024/01/09 03:51:29;;;;;;;1.85;0.60;;;-2.30;99.90;;;;;;5068441;28;20490;-76
2024/01/09 03:53:55;;;;;;;1.45;0.80;;;-2.30;99.90;;;;;;5070090;28;20036;-77
2024/01/09 03:56:21;;;;;;;2.30;1.13;;;-2.40;99.90;;;;;;5070152;28;20387;-77
2024/01/09 03:58:46;;;;;;;2.20;1.58;;;-2.40;99.90;;;;;;5066155;28;20028;-76
2024/01/09 04:01:12;;;;;;;0.45;0.43;;;-2.40;99.90;;;;;;5053020;28;20040;-76
2024/01/09 04:03:38;;;;;;;1.58;1.00;;;-2.40;99.90;;;;;;5052922;28;20038;-76
2024/01/09 04:06:04;;;;;;;3.80;1.13;;;-2.40;99.90;;;;;;5070560;28;20256;-76
2024/01/09 04:08:29;;;;;;;2.03;0.73;;;-2.40;99.90;;;;;;5067121;28;20038;-77
2024/01/09 04:10:55;;;;;;;3.00;1.17;;;-2.50;99.90;;;;;;5053836;28;20028;-76
2024/01/09 04:13:21;;;;;;;0.32;0.32;;;-2.50;99.90;;;;;;5069156;28;20069;-76
2024/01/09 04:15:46;;;;;;;0.68;0.57;;;-2.50;99.90;;;;;;5052572;28;20035;-76
2024/01/09 04:18:12;;;;;;;1.30;0.60;;;-2.50;99.90;;;;;;5070138;28;20032;-76
2024/01/09 04:20:39;;;;;;;1.60;0.82;;;-2.50;99.90;;;;;;5070672;28;20521;-77
2024/01/09 04:23:05;;;;;;;1.38;0.80;;;-2.50;99.90;;;;;;5048107;28;20111;-76
2024/01/09 04:25:31;;;;;;;0.77;0.60;;;-2.50;99.90;;;;;;5069340;28;20119;-77
2024/01/09 04:27:57;;;;;;;1.77;0.73;;;-2.50;99.90;;;;;;5069556;28;20027;-76
2024/01/09 04:30:22;;;;;;;5.68;1.00;;;-2.50;99.90;;;;;;5054410;28;20032;-76
2024/01/09 04:32:48;;;;;;;1.27;0.90;;;-2.50;99.90;;;;;;5069757;28;20505;-76
2024/01/09 04:35:14;;;;;;;1.30;0.35;;;-2.50;99.90;;;;;;5069015;28;20052;-76
2024/01/09 04:37:39;;;;;;;1.50;0.50;;;-2.50;99.90;;;;;;5069002;28;20115;-76
2024/01/09 04:40:06;;;;;;;0.85;0.40;;;-2.50;99.90;;;;;;5069721;28;20024;-76
2024/01/09 04:42:31;;;;;;;1.13;0.60;;;-2.50;99.90;;;;;;5052959;28;20462;-76
2024/01/09 04:44:57;;;;;;;1.70;0.77;;;-2.50;99.90;;;;;;5049105;28;20114;-76
2024/01/09 04:47:23;;;;;;;4.13;1.45;;;-2.50;99.90;;;;;;5052933;28;20039;-76
2024/01/09 04:49:48;;;;;;;1.67;0.90;;;-2.50;99.90;;;;;;5053004;28;20273;-77
2024/01/09 04:52:14;;;;;;;0.35;0.25;;;-2.60;99.90;;;;;;5069775;28;20040;-77
2024/01/09 04:54:40;;;;;;;3.75;0.50;;;-2.60;99.90;;;;;;5052359;28;20060;-76
2024/01/09 04:57:06;;;;;;;0.95;0.40;;;-2.60;99.90;;;;;;5067018;28;20044;-76
2024/01/09 04:59:31;;;;;;;4.10;0.95;;;-2.60;99.90;;;;;;5063534;28;20086;-76
2024/01/09 05:02:01;;;;;;;1.10;0.70;;;-2.60;99.90;;;;;;5034217;28;20041;-75
2024/01/09 05:04:29;;;;;;;1.33;0.75;;;-2.60;99.90;;;;;;5050292;28;20393;-76
2024/01/09 05:06:55;;;;;;;1.17;0.68;;;-2.70;99.90;;;;;;5071212;28;20040;-76
2024/01/09 05:09:21;;;;;;;0.63;0.47;;;-2.70;99.90;;;;;;5054387;28;20092;-76
2024/01/09 05:11:46;;;;;;;0.43;0.43;;;-2.70;99.90;;;;;;5069887;28;20097;-75
2024/01/09 05:14:12;;;;;;;2.55;0.75;;;-2.70;99.90;;;;;;5056613;28;20047;-76
2024/01/09 05:16:38;;;;;;;0.77;0.73;;;-2.60;99.90;;;;;;5074971;28;20036;-76
2024/01/09 05:19:04;;;;;;;0.82;0.60;;;-2.60;99.90;;;;;;5074397;28;20069;-76
2024/01/09 05:21:30;;;;;;;3.47;1.42;;;-2.60;99.90;;;;;;5058481;28;20066;-76
2024/01/09 05:23:56;;;;;;;0.90;0.68;;;-2.60;99.90;;;;;;5057944;28;20044;-76
2024/01/09 05:26:22;;;;;;;2.95;1.20;;;-2.70;99.90;;;;;;5050943;28;20036;-76
2024/01/09 05:28:48;;;;;;;5.25;1.17;;;-2.70;99.90;;;;;;5056660;28;20039;-75
2024/01/09 05:31:14;;;;;;;3.70;1.95;;;-2.70;99.90;;;;;;5057506;28;20043;-75
2024/01/09 05:33:39;;;;;;;2.38;0.98;;;-2.70;99.90;;;;;;5075070;28;20084;-76
2024/01/09 05:36:06;;;;;;;1.77;0.60;;;-2.70;99.90;;;;;;5058271;28;20096;-76
2024/01/09 05:38:32;;;;;;;2.00;0.85;;;-2.70;99.90;;;;;;5058912;28;20032;-75
2024/01/09 05:40:58;;;;;;;0.90;0.80;;;-2.80;99.90;;;;;;5074353;28;21612;-75
2024/01/09 05:43:24;;;;;;;2.53;0.98;;;-2.80;99.90;;;;;;5055037;28;20048;-76
2024/01/09 05:45:49;;;;;;;0.47;0.35;;;-2.80;99.90;;;;;;5074796;28;20036;-75
2024/01/09 05:48:15;;;;;;;2.17;0.93;;;-2.70;99.90;;;;;;5075072;28;20397;-76
2024/01/09 05:50:41;;;;;;;2.47;1.73;;;-2.80;99.90;;;;;;5056401;28;20523;-75
2024/01/09 05:53:08;;;;;;;1.92;0.65;;;-2.70;99.90;;;;;;5072192;28;20043;-76
2024/01/09 05:55:33;;;;;;;0.35;0.32;;;-2.70;99.90;;;;;;5073106;28;20040;-76
2024/01/09 05:57:59;;;;;;;2.03;0.77;;;-2.80;99.90;;;;;;5073763;28;20500;-76
2024/01/09 06:00:25;;;;;;;2.58;1.08;;;-2.80;99.90;;;;;;5070123;28;20481;-76
2024/01/09 06:02:51;;;;;;;2.35;0.80;;;-2.80;99.90;;;;;;5073231;28;20105;-76
2024/01/09 06:05:17;;;;;;;5.93;0.95;;;-2.80;99.90;;;;;;5052445;28;20043;-76
2024/01/09 06:07:43;;;;;;;1.30;0.63;;;-2.80;99.90;;;;;;5053366;28;20039;-75
2024/01/09 06:10:09;;;;;;;2.78;0.88;;;-2.80;99.90;;;;;;5056927;28;20135;-76
2024/01/09 06:12:35;;;;;;;1.63;0.60;;;-2.70;99.90;;;;;;5054768;28;20039;-76
2024/01/09 06:15:01;;;;;;;1.50;0.82;;;-2.70;99.90;;;;;;5072888;28;20039;-75
2024/01/09 06:17:27;;;;;;;2.95;0.75;;;-2.80;99.90;;;;;;5069506;28;20366;-75
2024/01/09 06:19:53;;;;;;;3.58;0.60;;;-2.80;99.90;;;;;;5069736;28;20098;-75
2024/01/09 06:22:18;;;;;;;4.47;0.90;;;-2.80;99.90;;;;;;5052419;28;20036;-75
2024/01/09 06:24:44;;;;;;;2.05;0.85;;;-2.80;99.90;;;;;;5050162;28;20122;-76
2024/01/09 06:27:10;;;;;;;2.20;1.08;;;-2.80;99.90;;;;;;5071053;28;20202;-76
2024/01/09 06:29:36;;;;;;;1.48;1.15;;;-2.90;99.90;;;;;;5073452;28;20450;-76
2024/01/09 06:32:02;;;;;;;2.03;1.30;;;-2.90;99.90;;;;;;5052358;28;20032;-76
2024/01/09 06:34:27;;;;;;;2.78;1.10;;;-2.90;99.90;;;;;;5057260;28;20058;-76
2024/01/09 06:36:53;;;;;;;2.50;1.20;;;-2.90;99.90;;;;;;5071413;28;20048;-75
2024/01/09 06:39:19;;;;;;;1.98;1.05;;;-2.90;99.90;;;;;;5055149;28;20054;-75
2024/01/09 06:41:44;;;;;;;2.90;1.48;;;-2.90;99.90;;;;;;5054380;28;20105;-75
2024/01/09 06:44:10;;;;;;;2.20;0.90;;;-2.90;99.90;;;;;;5070853;28;20039;-75
2024/01/09 06:46:36;;;;;;;1.08;0.77;;;-2.90;99.90;;;;;;5055212;28;20502;-75
2024/01/09 06:49:02;;;;;;;3.75;0.98;;;-3.00;99.90;;;;;;5053826;28;20039;-75
2024/01/09 06:51:29;;;;;;;1.73;0.50;;;-3.00;99.90;;;;;;5073135;28;20043;-76
2024/01/09 06:53:55;;;;;;;2.35;1.00;;;-3.00;99.90;;;;;;5070196;28;20049;-75
2024/01/09 06:56:21;;;;;;;2.33;1.17;;;-3.00;99.90;;;;;;5070481;28;20382;-75
2024/01/09 06:58:47;;;;;;;0.82;0.47;;;-3.00;99.90;;;;;;5069855;28;20505;-75
2024/01/09 07:01:12;;;;;;;1.80;0.98;;;-3.00;99.90;;;;;;5055756;28;20043;-75
2024/01/09 07:03:38;;;;;;;0.88;0.47;;;-3.10;99.90;;;;;;5069335;28;20092;-75
2024/01/09 07:06:04;;;;;;;1.17;0.60;;;-3.10;99.90;;;;;;5071370;28;20130;-76
2024/01/09 07:08:30;;;;;;;2.25;1.15;;;-3.10;99.90;;;;;;5053404;28;20036;-75
2024/01/09 07:10:56;;;;;;;3.13;1.42;;;-3.10;99.90;;;;;;5071291;28;20091;-75
2024/01/09 07:13:22;;;;;;;1.58;0.90;;;-3.10;99.90;;;;;;5070324;28;20459;-74
2024/01/09 07:15:49;;;;;;;2.78;1.17;;;-3.10;99.90;;;;;;5054453;28;20059;-73
2024/01/09 07:18:15;;;;;;;2.08;1.05;;;-3.10;99.90;;;;;;5086840;28;20040;-74
2024/01/09 07:20:40;;;;;;;0.80;0.60;;;-3.10;99.90;;;;;;5054248;28;20121;-74
2024/01/09 07:23:06;;;;;;;1.77;0.90;;;-3.10;99.90;;;;;;5052752;28;20043;-74
2024/01/09 07:25:32;;;;;;;1.13;0.73;;;-3.10;99.90;;;;;;5054643;28;20488;-74
2024/01/09 07:27:57;;;;;;;0.80;0.60;;;-3.10;99.90;;;;;;5068063;28;20047;-74
2024/01/09 07:30:23;;;;;;;1.05;0.70;;;-3.10;99.90;;;;;;5070626;28;20039;-74
2024/01/09 07:32:48;;;;;;;3.10;0.82;;;-3.10;99.90;;;;;;5050987;28;20036;-74
2024/01/09 07:35:14;;;;;;;0.95;0.70;;;-3.10;99.90;;;;;;5071639;28;20040;-74
2024/01/09 07:37:40;;;;;;;2.90;0.70;;;-3.10;99.90;;;;;;5068325;28;20032;-74
2024/01/09 07:40:07;;;;;;;1.48;0.80;;;-3.10;99.90;;;;;;5076315;28;20061;-74
2024/01/09 07:42:32;;;;;;;1.70;0.85;;;-3.10;99.90;;;;;;5071115;28;20114;-74
2024/01/09 07:44:58;;;;;;;1.23;0.63;;;-3.10;99.90;;;;;;5068593;28;20048;-74
2024/01/09 07:47:24;;;;;;;2.10;1.15;;;-3.10;99.90;;;;;;5067565;28;20032;-74
2024/01/09 07:49:49;;;;;;;1.77;0.60;;;-3.00;99.90;;;;;;5052801;28;20042;-73
2024/01/09 07:52:15;;;;;;;1.95;0.65;;;-3.00;99.90;;;;;;5068059;28;20066;-74
2024/01/09 07:54:43;;;;;;;2.10;1.08;;;-3.10;99.90;;;;;;5067077;28;20040;-74
2024/01/09 07:57:09;;;;;;;1.55;0.60;;;-3.10;99.90;;;;;;5063616;28;20036;-74
2024/01/09 07:59:35;;;;;;;0.95;0.63;;;-3.10;99.90;;;;;;5064848;28;20494;-74
2024/01/09 08:02:01;;;;;;;0.95;0.50;;;-3.10;99.90;;;;;;5071953;28;20560;-74
2024/01/09 08:04:27;;;;;;;2.72;0.80;;;-3.10;99.90;;;;;;5066302;28;20493;-75
2024/01/09 08:06:54;;;;;;;2.90;0.98;;;-3.00;99.90;;;;;;5049600;28;20044;-74
2024/01/09 08:09:20;;;;;;;3.05;0.85;;;-3.00;99.90;;;;;;5067733;28;20063;-75
2024/01/09 08:11:46;;;;;;;3.03;0.60;;;-3.00;99.90;;;;;;5050553;28;20035;-74
2024/01/09 08:14:13;;;;;;;0.63;0.40;;;-3.00;99.90;;;;;;5050907;28;20387;-73
2024/01/09 08:16:40;;;;;;;0.93;0.63;;;-3.00;99.90;;;;;;5050916;28;20033;-75
2024/01/09 08:19:09;;;;;;;1.08;0.93;;;-3.00;99.90;;;;;;5065705;28;20064;-74
2024/01/09 08:21:35;;;;;;;2.90;0.90;;;-3.00;99.90;;;;;;5067659;28;20118;-74
2024/01/09 08:24:01;;;;;;;1.35;0.90;;;-2.90;99.90;;;;;;5067962;28;20032;-74
2024/01/09 08:26:27;;;;;;;1.88;0.63;;;-3.00;99.90;;;;;;5046121;28;20043;-74
2024/01/09 08:28:53;;;;;;;2.78;0.85;;;-3.00;99.90;;;;;;5066288;28;20035;-74
2024/01/09 08:31:18;;;;;;;1.90;1.00;;;-3.00;99.90;;;;;;5068747;28;20036;-75
2024/01/09 08:33:44;;;;;;;2.03;0.68;;;-3.00;99.90;;;;;;5069896;28;20039;-74
2024/01/09 08:36:11;;;;;;;6.30;0.82;;;-3.00;99.90;;;;;;5051712;28;20130;-74
2024/01/09 08:38:37;;;;;;;0.50;0.32;;;-3.00;99.90;;;;;;5051431;28;20515;-74
2024/01/09 08:41:04;;;;;;;3.20;0.65;;;-3.00;99.90;;;;;;5068571;28;20122;-74
2024/01/09 08:43:30;;;;;;;1.27;1.13;;;-3.00;99.90;;;;;;5047768;28;20547;-74
2024/01/09 08:45:55;;;;;;;1.35;0.60;;;-3.00;99.90;;;;;;5046897;28;20036;-73
2024/01/09 08:48:21;;;;;;;1.00;0.73;;;-3.00;99.90;;;;;;5068943;28;20035;-74
2024/01/09 08:50:48;;;;;;;2.55;1.15;;;-2.90;99.90;;;;;;5053470;28;20097;-75
2024/01/09 08:53:13;;;;;;;0.82;0.70;;;-2.90;99.90;;;;;;5054404;28;20123;-74
2024/01/09 08:55:39;;;;;;;0.95;0.82;;;-2.90;99.90;;;;;;5051363;28;20127;-76
2024/01/09 08:58:05;;;;;;;4.25;1.30;;;-2.90;99.90;;;;;;5068016;28;20050;-77
2024/01/09 09:00:31;;;;;;;0.75;0.70;;;-2.80;99.90;;;;;;5048247;28;20083;-75
2024/01/09 09:02:56;;;;;;;1.92;1.25;;;-2.80;99.90;;;;;;5067863;28;20036;-74
2024/01/09 09:05:22;;;;;;;1.15;0.77;;;-2.80;99.90;;;;;;5069133;28;20417;-74
2024/01/09 09:07:48;;;;;;;1.23;0.52;;;-2.80;99.90;;;;;;5070324;28;20110;-75
2024/01/09 09:10:13;;;;;;;1.15;0.52;;;-2.80;99.90;;;;;;5067617;28;20056;-74
2024/01/09 09:12:39;;;;;;;1.10;0.60;;;-2.80;99.90;;;;;;5047574;28;20060;-74
2024/01/09 09:15:05;;;;;;;0.88;0.70;;;-2.70;99.90;;;;;;5052630;28;20066;-76
2024/01/09 09:17:31;;;;;;;6.30;1.67;;;-2.70;99.90;;;;;;5052192;28;20048;-74
2024/01/09 09:19:57;;;;;;;2.75;1.15;;;-2.60;99.90;;;;;;5071673;28;20060;-74
2024/01/09 09:22:25;;;;;;;3.42;1.33;;;-2.60;99.90;;;;;;5052590;28;20516;-75
2024/01/09 09:24:55;;;;;;;1.52;0.88;;;-2.60;99.90;;;;;;5064553;28;20493;-74
2024/01/09 09:27:21;;;;;;;3.83;1.98;;;-2.60;99.90;;;;;;5069929;28;20076;-75
2024/01/09 09:29:46;;;;;;;3.53;2.05;;;-2.60;99.90;;;;;;5062778;28;20044;-74
2024/01/09 09:32:12;;;;;;;3.90;1.00;;;-2.50;99.90;;;;;;5073103;28;20485;-74
2024/01/09 09:34:40;;;;;;;1.85;1.02;;;-2.50;99.90;;;;;;5076634;28;20470;-75
2024/01/09 09:37:06;;;;;;;2.15;0.98;;;-2.50;99.90;;;;;;5070714;28;20506;-74
2024/01/09 09:39:32;;;;;;;1.00;0.65;;;-2.40;99.90;;;;;;5071668;28;20398;-75
2024/01/09 09:41:58;;;;;;;2.00;0.82;;;-2.40;99.90;;;;;;5049662;28;20036;-75
2024/01/09 09:44:25;;;;;;;1.60;0.93;;;-2.40;99.90;;;;;;5052728;28;20075;-74
2024/01/09 09:46:52;;;;;;;0.63;0.40;;;-2.40;99.90;;;;;;5068738;28;20077;-74
2024/01/09 09:49:22;;;;;;;1.42;0.60;;;-2.40;99.90;;;;;;5051994;28;20261;-74
2024/01/09 09:51:52;;;;;;;0.70;0.60;;;-2.40;99.90;;;;;;5055143;28;20055;-74
2024/01/09 09:54:19;;;;;;;1.92;0.90;;;-2.40;99.90;;;;;;5049699;28;20048;-74
2024/01/09 09:56:45;;;;;;;1.20;0.60;;;-2.40;99.90;;;;;;5069108;28;20028;-74
2024/01/09 09:59:11;;;;;;;1.08;0.73;;;-2.30;99.90;;;;;;5071135;28;20313;-75
2024/01/09 10:01:38;;;;;;;2.42;0.98;;;-2.30;99.90;;;;;;5063946;28;20032;-75
2024/01/09 10:04:40;;;;;;;2.10;0.68;;;-2.30;99.90;;;;;;5057561;28;20120;-75
2024/01/09 10:07:06;;;;;;;2.67;0.95;;;-2.30;99.90;;;;;;5066340;28;20466;-74
2024/01/09 10:09:37;;;;;;;1.33;0.82;;;-2.30;99.90;;;;;;5073353;28;20127;-75
2024/01/09 10:12:03;;;;;;;1.20;0.70;;;-2.20;99.90;;;;;;5057119;28;20227;-75
2024/01/09 10:14:28;;;;;;;1.48;0.50;;;-2.20;99.90;;;;;;5071384;28;20040;-75
2024/01/09 10:16:55;;;;;;;1.30;0.60;;;-2.20;99.90;;;;;;5072416;28;20043;-75
2024/01/09 10:19:25;;;;;;;4.03;0.43;;;-2.20;99.90;;;;;;5071261;28;20071;-74
2024/01/09 10:21:51;;;;;;;1.35;0.32;;;-2.20;99.90;;;;;;5083722;28;20100;-75
2024/01/09 10:24:17;;;;;;;1.08;0.80;;;-2.20;99.90;;;;;;5080964;28;20505;-75
2024/01/09 10:26:43;;;;;;;1.98;0.70;;;-2.20;99.90;;;;;;5070343;28;20106;-74
2024/01/09 10:29:12;;;;;;;0.82;0.52;;;-2.20;99.90;;;;;;5037266;28;20040;-75
2024/01/09 10:31:41;;;;;;;1.73;0.57;;;-2.20;99.90;;;;;;5063413;28;20033;-75
2024/01/09 10:34:07;;;;;;;3.03;0.70;;;-2.10;99.90;;;;;;5064161;28;20047;-75
2024/01/09 10:36:33;;;;;;;1.20;0.88;;;-2.10;99.90;;;;;;5074582;28;20041;-75
2024/01/09 10:39:04;;;;;;;1.83;0.95;;;-2.10;99.90;;;;;;5053309;28;20028;-75
2024/01/09 10:41:30;;;;;;;3.85;1.50;;;-2.00;99.90;;;;;;5074418;28;20040;-75
2024/01/09 10:43:56;;;;;;;2.45;1.10;;;-2.00;99.90;;;;;;5072741;28;20047;-75
2024/01/09 10:46:25;;;;;;;3.25;1.30;;;-2.00;99.90;;;;;;5068998;28;20044;-75
2024/01/09 10:48:52;;;;;;;3.83;1.27;;;-2.00;99.90;;;;;;5059578;28;20055;-75
2024/01/09 10:51:18;;;;;;;3.03;1.25;;;-2.00;99.90;;;;;;5050359;28;20059;-75
2024/01/09 10:53:49;;;;;;;1.27;0.80;;;-1.90;99.90;;;;;;5055327;28;20508;-75
2024/01/09 10:56:17;;;;;;;1.75;0.85;;;-1.90;99.90;;;;;;5072453;28;20405;-75
2024/01/09 10:58:46;;;;;;;3.10;1.40;;;-1.90;99.90;;;;;;5072380;28;20416;-75
2024/01/09 11:01:13;;;;;;;1.08;0.73;;;-1.90;99.90;;;;;;5070309;28;20090;-75
2024/01/09 11:03:39;;;;;;;1.02;0.57;;;-1.80;99.90;;;;;;5073369;28;20175;-75
2024/01/09 11:06:07;;;;;;;1.13;0.63;;;-1.80;99.90;;;;;;5070107;28;20370;-75
2024/01/09 11:08:36;;;;;;;2.95;1.25;;;-1.80;99.90;;;;;;5072964;28;20135;-75
2024/01/09 11:11:12;;;;;;;2.25;1.20;;;-1.70;99.90;;;;;;5071514;28;20131;-75
2024/01/09 11:13:39;;;;;;;;;;;-1.70;99.90;;;;;;5056202;28;20402;-75
2024/01/09 11:16:07;;;;;;;2.60;1.50;;;-1.70;99.90;;;;;;5071627;28;20420;-75
2024/01/09 11:18:34;;;;;;;1.75;0.82;;;-1.70;99.90;;;;;;5071413;28;20414;-75
2024/01/09 11:21:02;;;;;;;2.63;0.77;;;-1.70;99.90;;;;;;5072952;28;20036;-75
2024/01/09 11:23:42;;;;;;;0.38;0.38;;;-1.60;99.90;;;;;;5064370;28;20060;-75
2024/01/09 11:26:09;;;;;;;2.60;1.33;;;-1.60;99.90;;;;;;5067236;28;20122;-75
2024/01/09 11:28:36;;;;;;;1.35;0.70;;;-1.60;99.90;;;;;;5048486;28;20103;-75
2024/01/09 11:31:06;;;;;;;4.22;0.70;;;-1.50;99.90;;;;;;5052195;28;20394;-75
2024/01/09 11:33:32;;;;;;;0.40;0.40;;;-1.50;99.90;;;;;;5070487;28;20048;-75
2024/01/09 11:36:08;;;;;;;0.73;0.60;;;-1.50;99.90;;;;;;5072331;28;20038;-75
2024/01/09 11:38:37;;;;;;;3.58;0.98;;;-1.50;99.90;;;;;;5053562;28;20089;-74
2024/01/09 11:41:09;;;;;;;3.53;1.23;;;-1.50;99.90;;;;;;5070146;28;20044;-74
2024/01/09 11:43:56;;;;;;;2.33;1.02;;;-1.50;99.90;;;;;;5068186;28;20066;-75
2024/01/09 11:46:23;;;;;;;3.15;1.65;;;-1.40;99.90;;;;;;5053375;28;20046;-75
2024/01/09 11:48:49;;;;;;;2.08;0.98;;;-1.40;99.90;;;;;;5070967;28;20416;-76
2024/01/09 11:51:14;;;;;;;1.25;0.80;;;-1.40;99.90;;;;;;5071057;28;20040;-76
2024/01/09 11:53:40;;;;;;;0.50;0.50;;;-1.40;99.90;;;;;;5068458;28;20043;-76
2024/01/09 11:56:12;;;;;;;1.65;0.65;;;-1.40;99.90;;;;;;5059076;28;20040;-76
2024/01/09 11:58:38;;;;;;;2.10;0.75;;;-1.30;99.90;;;;;;5051278;28;20111;-76
2024/01/09 12:01:04;;;;;;;2.15;0.82;;;-1.30;99.90;;;;;;5055296;28;20043;-76
2024/01/09 12:03:30;;;;;;;3.03;1.55;;;-1.30;99.90;;;;;;5055633;28;20054;-76
2024/01/09 12:05:56;;;;;;;2.20;1.27;;;-1.20;99.90;;;;;;5068814;28;20553;-76
2024/01/09 12:08:24;;;;;;;2.08;1.75;;;-1.20;99.90;;;;;;5067855;28;20036;-76
2024/01/09 12:10:49;;;;;;;1.05;0.50;;;-1.20;99.90;;;;;;5053485;28;20040;-75
2024/01/09 12:13:18;;;;;;;1.33;0.50;;;-1.20;99.90;;;;;;5083804;28;21927;-76
2024/01/09 12:15:44;;;;;;;1.85;1.20;;;-1.20;99.50;;;;;;5079249;28;20047;-75
2024/01/09 12:18:10;;;;;;;0.80;0.57;;;-1.10;99.90;;;;;;5071432;28;20032;-76
2024/01/09 12:20:36;;;;;;;1.60;0.57;;;-1.10;99.80;;;;;;5061739;28;20586;-75
2024/01/09 12:23:02;;;;;;;1.67;0.70;;;-1.10;99.90;;;;;;5070916;28;20080;-75
2024/01/09 12:25:28;;;;;;;2.38;1.23;;;-1.10;99.90;;;;;;5058237;28;20037;-75
2024/01/09 12:27:55;;;;;;;1.23;0.90;;;-1.10;99.90;;;;;;5046667;28;20050;-74
2024/01/09 12:30:22;;;;;;;1.60;0.88;;;-1.10;99.90;;;;;;5049639;28;20031;-75
2024/01/09 12:32:48;;;;;;;2.40;0.70;;;-1.00;99.90;;;;;;5066440;28;20047;-75
2024/01/09 12:35:14;;;;;;;3.70;1.05;;;-1.00;99.90;;;;;;5073780;28;20040;-76
2024/01/09 12:37:40;;;;;;;1.83;0.80;;;-1.00;99.90;;;;;;5069026;28;20115;-75
2024/01/09 12:40:09;;;;;;;2.08;0.50;;;-0.90;99.90;;;;;;5056801;28;20139;-76
2024/01/09 12:42:36;;;;;;;6.22;0.90;;;-0.90;99.90;;;;;;5062675;28;20086;-75
2024/01/09 12:45:02;;;;;;;0.90;0.57;;;-0.90;99.90;;;;;;5052650;28;20031;-76